Terminal Aerodrome Forecast
Issued by NWS

Home | Current Version | Previous Version | Text Only | Print | Product List | Glossary On
Versions: 1 2 3 4 5 6 7 8 9 10 11 12 13 14 15 16 17 18 19 20
000
FTUS42 KFFC 111136
TAFFTY
TAF
KFTY 111136Z 1112/1212 24003KT P6SM SKC
     FM111800 25008KT P6SM FEW070
     FM112300 24005KT P6SM FEW250
     FM121100 30010KT P6SM BKN250=

USA.gov is the U.S. government's official web portal to all federal, state and local government web resources and services.